Time;durP1;ratioP1;P1;durP2;ratioP2;P2;SDS_P1;SDS_P2;PMS_P1;PMS_P2;Temp;Humidity;BMP_temperature;BMP_pressure;BME280_temperature;BME280_humidity;BME280_pressure;Samples;Min_cycle;Max_cycle;Signal;HPM_P1;HPM_P2
2020/12/03 00:01:24;;;;;;;;;;;0.70;99.90;;;;;;5092931;28;19939;-87
2020/12/03 00:04:03;;;;;;;;;;;0.70;99.90;;;;;;5093969;28;19954;-88
2020/12/03 00:06:28;;;;;;;;;;;0.70;99.90;;;;;;5111779;28;19915;-89
2020/12/03 00:08:55;;;;;;;;;;;0.70;99.90;;;;;;5094047;28;20330;-88
2020/12/03 00:11:25;;;;;;;;;;;0.70;99.90;;;;;;5093246;28;20021;-88
2020/12/03 00:13:50;;;;;;;;;;;0.70;99.90;;;;;;5092279;28;19920;-88
2020/12/03 00:16:16;;;;;;;;;;;0.70;99.90;;;;;;5093073;28;19960;-88
2020/12/03 00:18:44;;;;;;;;;;;0.70;99.90;;;;;;5093060;28;19931;-89
2020/12/03 00:21:10;;;;;;;;;;;0.70;99.90;;;;;;5092769;28;19911;-88
2020/12/03 00:23:39;;;;;;;;;;;0.70;99.90;;;;;;5093042;28;19912;-88
2020/12/03 00:26:05;;;;;;;;;;;0.70;99.90;;;;;;5093241;28;19999;-89
2020/12/03 00:28:35;;;;;;;;;;;0.70;99.90;;;;;;5092965;28;20006;-88
2020/12/03 00:31:01;;;;;;;;;;;0.70;99.90;;;;;;5092982;28;20294;-88
2020/12/03 00:33:29;;;;;;;;;;;0.70;99.90;;;;;;5093045;28;19920;-88
2020/12/03 00:35:57;;;;;;;;;;;0.70;99.90;;;;;;5092455;28;19915;-88
2020/12/03 00:38:23;;;;;;;;;;;0.70;99.90;;;;;;5092962;28;20302;-88
2020/12/03 00:40:54;;;;;;;;;;;0.70;99.90;;;;;;5093197;28;19959;-88
2020/12/03 00:43:20;;;;;;;;;;;0.70;99.90;;;;;;5093140;28;19938;-86
2020/12/03 00:45:46;;;;;;;;;;;0.70;99.90;;;;;;5092508;28;20375;-87
2020/12/03 00:48:16;;;;;;;;;;;0.70;99.90;;;;;;5092943;28;19961;-87
2020/12/03 00:50:41;;;;;;;;;;;0.70;99.90;;;;;;5092759;28;20283;-87
2020/12/03 00:53:07;;;;;;;;;;;0.70;99.90;;;;;;5092796;28;20310;-87
2020/12/03 00:55:32;;;;;;;;;;;0.70;99.90;;;;;;5092640;28;19961;-86
2020/12/03 00:57:58;;;;;;;;;;;0.60;99.90;;;;;;5092613;28;19951;-87
2020/12/03 01:00:24;;;;;;;;;;;0.60;99.90;;;;;;5092437;28;20002;-87
2020/12/03 01:02:54;;;;;;;;;;;0.60;99.90;;;;;;5092882;28;20510;-87
2020/12/03 01:05:22;;;;;;;;;;;0.60;99.90;;;;;;5093071;28;19957;-88
2020/12/03 01:07:50;;;;;;;;;;;0.70;99.90;;;;;;5092998;28;19911;-87
2020/12/03 01:10:21;;;;;;;;;;;0.70;99.90;;;;;;5092720;28;20282;-88
2020/12/03 01:12:47;;;;;;;;;;;0.70;99.90;;;;;;5095683;28;19923;-87
2020/12/03 01:15:15;;;;;;;;;;;0.70;99.90;;;;;;5096429;28;19920;-87
2020/12/03 01:17:41;;;;;;;;;;;0.70;99.90;;;;;;5114600;28;19937;-87
2020/12/03 01:20:10;;;;;;;;;;;0.70;99.90;;;;;;5096228;28;19998;-87
2020/12/03 01:22:36;;;;;;;;;;;0.70;99.90;;;;;;5096413;28;19912;-87
2020/12/03 01:25:03;;;;;;;;;;;0.70;99.90;;;;;;5096253;28;19918;-87
2020/12/03 01:27:28;;;;;;;;;;;0.70;99.90;;;;;;5096248;28;19916;-88
2020/12/03 01:29:54;;;;;;;;;;;0.70;99.90;;;;;;5096162;28;19961;-87
2020/12/03 01:32:19;;;;;;;;;;;0.70;99.90;;;;;;5096266;28;19951;-88
2020/12/03 01:34:45;;;;;;;;;;;0.70;99.90;;;;;;5103691;28;19919;-87
2020/12/03 01:37:12;;;;;;;;;;;0.70;99.90;;;;;;5112967;28;19980;-87
2020/12/03 01:39:41;;;;;;;;;;;0.80;99.90;;;;;;5113388;28;20313;-88
2020/12/03 01:42:07;;;;;;;;;;;0.70;99.90;;;;;;5113036;28;19940;-87
2020/12/03 01:44:34;;;;;;;;;;;0.80;99.90;;;;;;5113284;28;20032;-87
2020/12/03 01:47:01;;;;;;;;;;;0.80;99.90;;;;;;5113526;28;19911;-88
2020/12/03 01:49:31;;;;;;;;;;;0.70;99.90;;;;;;5112001;28;19912;-87
2020/12/03 01:51:56;;;;;;;;;;;0.80;99.90;;;;;;5114085;28;19999;-89
2020/12/03 01:54:22;;;;;;;;;;;0.70;99.90;;;;;;5113060;28;20009;-88
2020/12/03 01:57:03;;;;;;;;;;;0.70;99.90;;;;;;5112617;28;19969;-87
2020/12/03 01:59:48;;;;;;;;;;;0.70;99.90;;;;;;5113795;28;20442;-88
2020/12/03 02:02:14;;;;;;;;;;;0.80;99.90;;;;;;5112458;28;19966;-87
2020/12/03 02:04:40;;;;;;;;;;;0.80;99.90;;;;;;5112535;28;19911;-87
2020/12/03 02:07:07;;;;;;;;;;;0.80;99.90;;;;;;5112492;28;19912;-88
2020/12/03 02:09:33;;;;;;;;;;;0.80;99.90;;;;;;5112633;28;19919;-87
2020/12/03 02:12:01;;;;;;;;;;;0.70;99.90;;;;;;5112416;28;20267;-88
2020/12/03 02:14:29;;;;;;;;;;;0.70;99.90;;;;;;5112556;28;20281;-86
2020/12/03 02:16:55;;;;;;;;;;;0.70;99.90;;;;;;5112297;28;20328;-87
2020/12/03 02:19:21;;;;;;;;;;;0.70;99.90;;;;;;5112178;28;19930;-87
2020/12/03 02:22:01;;;;;;;;;;;0.70;99.90;;;;;;5112442;28;19965;-87
2020/12/03 02:24:32;;;;;;;;;;;0.70;99.90;;;;;;5112624;28;19965;-87
2020/12/03 02:27:22;;;;;;;;;;;0.70;99.90;;;;;;5112213;28;19918;-87
2020/12/03 02:29:51;;;;;;;;;;;0.70;99.90;;;;;;5113918;28;19951;-88
2020/12/03 02:32:18;;;;;;;;;;;0.70;99.90;;;;;;5094865;28;20347;-86
2020/12/03 02:34:46;;;;;;;;;;;0.70;99.90;;;;;;5094762;28;19915;-86
2020/12/03 02:37:12;;;;;;;;;;;0.70;99.90;;;;;;5094577;28;19911;-87
2020/12/03 02:39:38;;;;;;;;;;;0.80;99.90;;;;;;5094934;28;19916;-86
2020/12/03 02:42:04;;;;;;;;;;;0.70;99.90;;;;;;5094591;28;19913;-87
2020/12/03 02:44:30;;;;;;;;;;;0.70;99.90;;;;;;5094704;28;20010;-88
2020/12/03 02:46:55;;;;;;;;;;;0.80;99.90;;;;;;5095133;28;20097;-86
2020/12/03 02:49:21;;;;;;;;;;;0.80;99.90;;;;;;5095622;28;19912;-89
2020/12/03 02:51:51;;;;;;;;;;;0.80;99.90;;;;;;5094841;28;20386;-87
2020/12/03 02:54:19;;;;;;;;;;;0.80;99.90;;;;;;5095896;28;19915;-87
2020/12/03 02:56:45;;;;;;;;;;;0.80;99.90;;;;;;5094451;28;19908;-86
2020/12/03 02:59:11;;;;;;;;;;;0.80;99.90;;;;;;5094628;28;19934;-87
2020/12/03 03:01:39;;;;;;;;;;;0.80;99.90;;;;;;5094795;28;19911;-87
2020/12/03 03:04:05;;;;;;;;;;;0.80;99.90;;;;;;5094996;28;19911;-88
2020/12/03 03:06:35;;;;;;;;;;;0.80;99.90;;;;;;5094306;28;19919;-87
2020/12/03 03:09:03;;;;;;;;;;;0.70;99.90;;;;;;5094198;28;19908;-87
2020/12/03 03:11:32;;;;;;;;;;;0.70;99.90;;;;;;5094059;28;20325;-87
2020/12/03 03:14:00;;;;;;;;;;;0.70;99.90;;;;;;5112248;28;19940;-88
2020/12/03 03:16:26;;;;;;;;;;;0.70;99.90;;;;;;5093837;28;19926;-88
2020/12/03 03:18:54;;;;;;;;;;;0.70;99.90;;;;;;5093835;28;20371;-89
2020/12/03 03:21:22;;;;;;;;;;;0.70;99.90;;;;;;5094022;28;19911;-88
2020/12/03 03:23:48;;;;;;;;;;;0.70;99.90;;;;;;5093939;28;19911;-87
2020/12/03 03:26:16;;;;;;;;;;;0.70;99.90;;;;;;5093538;28;20006;-87
2020/12/03 03:28:43;;;;;;;;;;;0.70;99.90;;;;;;5094218;28;19912;-86
2020/12/03 03:31:11;;;;;;;;;;;0.70;99.90;;;;;;5094046;28;19916;-88
2020/12/03 03:33:36;;;;;;;;;;;0.80;99.90;;;;;;5094723;28;19958;-86
2020/12/03 03:36:04;;;;;;;;;;;0.80;99.90;;;;;;5093563;28;19944;-88
2020/12/03 03:38:32;;;;;;;;;;;0.70;99.90;;;;;;5093526;28;20006;-87
2020/12/03 03:40:58;;;;;;;;;;;0.80;99.90;;;;;;5094408;28;19912;-86
2020/12/03 03:43:23;;;;;;;;;;;0.70;99.90;;;;;;5093802;28;19927;-87
2020/12/03 03:45:49;;;;;;;;;;;0.70;99.90;;;;;;5093818;28;20415;-87
2020/12/03 03:48:15;;;;;;;;;;;0.70;99.90;;;;;;5093528;28;20323;-87
2020/12/03 03:50:40;;;;;;;;;;;0.70;99.90;;;;;;5093793;28;19908;-88
2020/12/03 03:53:06;;;;;;;;;;;0.70;99.90;;;;;;5093148;28;19916;-87
2020/12/03 03:55:31;;;;;;;;;;;0.80;99.90;;;;;;5093490;28;19923;-87
2020/12/03 03:57:59;;;;;;;;;;;0.80;99.90;;;;;;5093625;28;19927;-87
2020/12/03 04:00:25;;;;;;;;;;;0.80;99.90;;;;;;5093490;28;20014;-87
2020/12/03 04:02:50;;;;;;;;;;;0.80;99.90;;;;;;5093436;28;19915;-87
2020/12/03 04:05:18;;;;;;;;;;;0.80;99.90;;;;;;5092516;28;20332;-87
2020/12/03 04:07:44;;;;;;;;;;;0.80;99.90;;;;;;5093286;28;19911;-88
2020/12/03 04:10:17;;;;;;;;;;;0.80;99.90;;;;;;5094480;28;20136;-88
2020/12/03 04:12:43;;;;;;;;;;;0.80;99.90;;;;;;5093821;28;19912;-87
2020/12/03 04:15:18;;;;;;;;;;;0.80;99.90;;;;;;5094454;28;20022;-87
2020/12/03 04:17:44;;;;;;;;;;;0.80;99.90;;;;;;5092621;28;19927;-88
2020/12/03 04:20:16;;;;;;;;;;;0.80;99.90;;;;;;5092816;28;20348;-87
2020/12/03 04:22:42;;;;;;;;;;;0.80;99.90;;;;;;5093473;28;20278;-86
2020/12/03 04:25:08;;;;;;;;;;;0.80;99.90;;;;;;5092774;28;19965;-87
2020/12/03 04:27:33;;;;;;;;;;;0.80;99.90;;;;;;5093314;28;19912;-87
2020/12/03 04:30:06;;;;;;;;;;;0.80;99.90;;;;;;5093716;28;19951;-87
2020/12/03 04:32:36;;;;;;;;;;;0.80;99.90;;;;;;5092926;28;19968;-87
2020/12/03 04:35:02;;;;;;;;;;;0.80;99.90;;;;;;5111609;28;20314;-87
2020/12/03 04:37:28;;;;;;;;;;;0.80;99.90;;;;;;5092944;28;19916;-87
2020/12/03 04:39:54;;;;;;;;;;;0.80;99.90;;;;;;5093924;28;19908;-88
2020/12/03 04:42:25;;;;;;;;;;;0.80;99.90;;;;;;5092953;28;19912;-86
2020/12/03 04:44:52;;;;;;;;;;;0.80;99.90;;;;;;5093004;28;19918;-88
2020/12/03 04:47:38;;;;;;;;;;;0.70;99.90;;;;;;5095064;28;19912;-87
2020/12/03 04:50:10;;;;;;;;;;;0.80;99.90;;;;;;5097383;28;20425;-88
2020/12/03 04:52:41;;;;;;;;;;;0.80;99.90;;;;;;5097466;28;20027;-86
2020/12/03 04:55:16;;;;;;;;;;;0.80;99.90;;;;;;5097118;28;20378;-86
2020/12/03 04:57:46;;;;;;;;;;;0.80;99.90;;;;;;5093895;28;20012;-86
2020/12/03 05:00:19;;;;;;;;;;;0.80;99.90;;;;;;5093647;28;20095;-87
2020/12/03 05:02:47;;;;;;;;;;;0.80;99.90;;;;;;5094883;28;19916;-86
2020/12/03 05:05:15;;;;;;;;;;;0.80;99.90;;;;;;5093497;28;19919;-88
2020/12/03 05:07:47;;;;;;;;;;;0.80;99.90;;;;;;5095833;28;19935;-86
2020/12/03 05:10:25;;;;;;;;;;;0.90;99.90;;;;;;5096901;28;19927;-87
2020/12/03 05:12:51;;;;;;;;;;;0.90;99.90;;;;;;5096966;28;20362;-88
2020/12/03 05:15:16;;;;;;;;;;;0.90;99.90;;;;;;5096394;28;19967;-87
2020/12/03 05:18:03;;;;;;;;;;;0.90;99.90;;;;;;5096959;28;19958;-88
2020/12/03 05:20:29;;;;;;;;;;;0.90;99.90;;;;;;5076717;28;19920;-87
2020/12/03 05:23:02;;;;;;;;;;;0.90;99.90;;;;;;5076192;28;19919;-88
2020/12/03 05:25:27;;;;;;;;;;;0.90;99.90;;;;;;5076228;28;19999;-87
2020/12/03 05:27:56;;;;;;;;;;;0.90;99.90;;;;;;5076114;28;20003;-87
2020/12/03 05:30:24;;;;;;;;;;;1.00;99.90;;;;;;5076166;28;19916;-87
2020/12/03 05:32:52;;;;;;;;;;;1.00;99.90;;;;;;5076445;28;20366;-87
2020/12/03 05:35:23;;;;;;;;;;;0.90;99.90;;;;;;5076011;28;20071;-88
2020/12/03 05:37:48;;;;;;;;;;;1.00;99.90;;;;;;5075990;28;19924;-87
2020/12/03 05:40:24;;;;;;;;;;;0.90;99.90;;;;;;5076445;28;19919;-87
2020/12/03 05:42:53;;;;;;;;;;;1.00;99.90;;;;;;5075943;28;19965;-88
2020/12/03 05:45:26;;;;;;;;;;;1.00;99.90;;;;;;5075889;28;19923;-88
2020/12/03 05:47:52;;;;;;;;;;;1.00;99.90;;;;;;5076016;28;19916;-87
2020/12/03 05:50:31;;;;;;;;;;;0.90;99.90;;;;;;5075660;28;19919;-87
2020/12/03 05:53:02;;;;;;;;;;;0.90;99.90;;;;;;5075133;28;19915;-87
2020/12/03 05:55:28;;;;;;;;;;;0.90;99.90;;;;;;5075531;28;19916;-87
2020/12/03 05:57:56;;;;;;;;;;;0.90;99.90;;;;;;5075933;28;19912;-88
2020/12/03 06:00:25;;;;;;;;;;;0.90;99.90;;;;;;5075305;28;19908;-87
2020/12/03 06:02:57;;;;;;;;;;;0.90;99.90;;;;;;5076132;28;19965;-88
2020/12/03 06:05:41;;;;;;;;;;;0.90;99.90;;;;;;5093572;28;20391;-87
2020/12/03 06:08:30;;;;;;;;;;;0.90;99.90;;;;;;5075483;28;19919;-87
2020/12/03 06:11:17;;;;;;;;;;;0.90;99.90;;;;;;5075222;28;19980;-87
2020/12/03 06:14:11;;;;;;;;;;;0.90;99.90;;;;;;5076168;28;20302;-88
2020/12/03 06:16:45;;;;;;;;;;;0.90;99.90;;;;;;5075209;28;19947;-87
2020/12/03 06:19:24;;;;;;;;;;;0.90;99.90;;;;;;5087855;28;20386;-87
2020/12/03 06:22:05;;;;;;;;;;;0.90;99.90;;;;;;5094731;28;19916;-88
2020/12/03 06:24:39;;;;;;;;;;;0.90;99.90;;;;;;5095131;28;19911;-86
2020/12/03 06:27:24;;;;;;;;;;;1.00;99.90;;;;;;5091752;28;20390;-87
2020/12/03 06:29:57;;;;;;;;;;;1.00;99.90;;;;;;5084831;28;19975;-86
2020/12/03 06:32:58;;;;;;;;;;;1.00;99.90;;;;;;5094495;28;19916;-87
2020/12/03 06:35:31;;;;;;;;;;;0.90;99.90;;;;;;5030696;28;19956;-87
2020/12/03 06:38:09;;;;;;;;;;;1.00;99.90;;;;;;5081068;28;19932;-87
2020/12/03 06:40:42;;;;;;;;;;;1.00;99.90;;;;;;5084548;28;19918;-86
2020/12/03 06:43:07;;;;;;;;;;;1.00;99.90;;;;;;5093608;28;20046;-88
2020/12/03 06:45:40;;;;;;;;;;;1.00;99.90;;;;;;5092681;28;20549;-86
2020/12/03 06:48:14;;;;;;;;;;;1.00;99.90;;;;;;5093172;28;20293;-87
2020/12/03 06:51:03;;;;;;;;;;;1.00;99.90;;;;;;5093561;28;19916;-87
2020/12/03 06:53:40;;;;;;;;;;;1.10;99.90;;;;;;5085175;28;19962;-89
2020/12/03 06:56:12;;;;;;;;;;;1.00;99.90;;;;;;5093275;28;19919;-88
2020/12/03 06:58:37;;;;;;;;;;;1.10;99.90;;;;;;5092843;28;19912;-88
2020/12/03 07:01:06;;;;;;;;;;;1.10;99.90;;;;;;5093282;28;20350;-87
2020/12/03 07:03:50;;;;;;;;;;;1.10;99.90;;;;;;5083335;28;20156;-87
2020/12/03 07:06:34;;;;;;;;;;;1.10;99.90;;;;;;5100176;28;19951;-86
2020/12/03 07:09:05;;;;;;;;;;;1.10;99.90;;;;;;5083457;28;19916;-87
2020/12/03 07:11:49;;;;;;;;;;;1.10;99.90;;;;;;5088039;28;19912;-88
2020/12/03 07:14:42;;;;;;;;;;;1.10;99.90;;;;;;5083380;28;19924;-87
2020/12/03 07:17:28;;;;;;;;;;;1.10;99.90;;;;;;5092009;28;19912;-87
2020/12/03 07:19:53;;;;;;;;;;;1.10;99.90;;;;;;5063239;28;19994;-88
2020/12/03 07:22:22;;;;;;;;;;;1.20;99.90;;;;;;5082890;28;20467;-87
2020/12/03 07:24:48;;;;;;;;;;;1.20;99.90;;;;;;5092665;28;20078;-86
2020/12/03 07:27:35;;;;;;;;;;;1.20;99.90;;;;;;5093165;28;20394;-87
2020/12/03 07:30:06;;;;;;;;;;;1.20;99.90;;;;;;5091203;28;20288;-87
2020/12/03 07:32:32;;;;;;;;;;;1.20;99.90;;;;;;5093351;28;19923;-87
2020/12/03 07:35:16;;;;;;;;;;;1.30;99.90;;;;;;5091226;28;19916;-87
2020/12/03 07:37:54;;;;;;;;;;;1.30;99.90;;;;;;5081857;28;19920;-87
2020/12/03 07:40:22;;;;;;;;;;;1.40;99.90;;;;;;5073344;28;19919;-88
2020/12/03 07:43:01;;;;;;;;;;;1.40;99.90;;;;;;5074599;28;19920;-88
2020/12/03 07:45:44;;;;;;;;;;;1.40;99.90;;;;;;5074117;28;20033;-87
2020/12/03 07:48:12;;;;;;;;;;;1.50;99.90;;;;;;5085048;28;19919;-88
2020/12/03 07:50:39;;;;;;;;;;;1.50;99.90;;;;;;5091703;28;20017;-87
2020/12/03 07:53:14;;;;;;;;;;;1.50;99.90;;;;;;5091040;28;19915;-87
2020/12/03 07:55:40;;;;;;;;;;;1.60;99.90;;;;;;5086490;28;19942;-87
2020/12/03 07:58:25;;;;;;;;;;;1.60;99.90;;;;;;5092220;28;19912;-87
2020/12/03 08:00:56;;;;;;;;;;;1.60;99.90;;;;;;5084613;28;19976;-87
2020/12/03 08:03:37;;;;;;;;;;;1.70;99.90;;;;;;5091262;28;19912;-87
2020/12/03 08:06:13;;;;;;;;;;;1.80;99.90;;;;;;5086367;28;19916;-87
2020/12/03 08:08:43;;;;;;;;;;;1.90;99.90;;;;;;5089345;28;19916;-87
2020/12/03 08:11:27;;;;;;;;;;;1.80;99.90;;;;;;5090167;28;19924;-87
2020/12/03 08:13:57;;;;;;;;;;;1.80;99.90;;;;;;5090060;28;19916;-87
2020/12/03 08:16:43;;;;;;;;;;;1.80;99.90;;;;;;5090092;28;20017;-87
2020/12/03 08:19:15;;;;;;;;;;;1.80;99.90;;;;;;5089712;28;19928;-87
2020/12/03 08:21:41;;;;;;;;;;;2.00;99.90;;;;;;5092380;28;20018;-87
2020/12/03 08:24:17;;;;;;;;;;;2.00;99.90;;;;;;5093521;28;19934;-87
2020/12/03 08:26:43;;;;;;;;;;;2.00;99.90;;;;;;5093782;28;19919;-87
2020/12/03 08:29:18;;;;;;;;;;;2.00;99.90;;;;;;5093594;28;19915;-87
2020/12/03 08:31:46;;;;;;;;;;;2.10;99.90;;;;;;5077044;28;19912;-88
2020/12/03 08:34:12;;;;;;;;;;;2.20;99.90;;;;;;5102604;28;19924;-87
2020/12/03 08:36:37;;;;;;;;;;;2.20;99.90;;;;;;5089397;28;19916;-87
2020/12/03 08:39:03;;;;;;;;;;;2.30;99.90;;;;;;5089855;28;19918;-87
2020/12/03 08:41:31;;;;;;;;;;;2.30;99.90;;;;;;5089838;28;19943;-88
2020/12/03 08:44:03;;;;;;;;;;;2.30;99.90;;;;;;5091047;28;19912;-87
2020/12/03 08:46:36;;;;;;;;;;;2.50;99.90;;;;;;5090454;28;20370;-87
2020/12/03 08:49:05;;;;;;;;;;;2.50;99.90;;;;;;5089973;28;19920;-88
2020/12/03 08:51:31;;;;;;;;;;;2.50;99.90;;;;;;5089987;28;19919;-88
2020/12/03 08:53:57;;;;;;;;;;;2.60;99.90;;;;;;5090545;28;20322;-87
2020/12/03 08:56:32;;;;;;;;;;;2.70;99.90;;;;;;5090916;28;20379;-87
2020/12/03 08:59:00;;;;;;;;;;;2.80;99.90;;;;;;5084822;28;19915;-87
2020/12/03 09:01:28;;;;;;;;;;;2.80;99.90;;;;;;5092607;28;19931;-87
2020/12/03 09:03:55;;;;;;;;;;;2.80;99.90;;;;;;5093084;28;20274;-87
2020/12/03 09:06:21;;;;;;;;;;;2.80;99.90;;;;;;5090115;28;19920;-86
2020/12/03 09:08:47;;;;;;;;;;;2.80;99.90;;;;;;5090160;28;19918;-87
2020/12/03 09:11:16;;;;;;;;;;;2.80;99.90;;;;;;5091321;28;20422;-87
2020/12/03 09:13:42;;;;;;;;;;;2.90;99.90;;;;;;5091807;28;20333;-87
2020/12/03 09:16:12;;;;;;;;;;;3.00;97.70;;;;;;5090194;28;20122;-88
2020/12/03 09:18:41;;;;;;;;;;;3.00;97.30;;;;;;5090997;28;19988;-87
2020/12/03 09:21:08;;;;;;;;;;;3.10;97.10;;;;;;5108192;28;19912;-86
2020/12/03 09:23:35;;;;;;;;;;;3.10;96.20;;;;;;5092754;28;19919;-87
2020/12/03 09:26:10;;;;;;;;;;;3.10;95.90;;;;;;5092648;28;19918;-86
2020/12/03 09:28:38;;;;;;;;;;;3.20;97.40;;;;;;5092218;28;19923;-87
2020/12/03 09:31:06;;;;;;;;;;;3.20;97.30;;;;;;5089360;28;19911;-86
2020/12/03 09:33:34;;;;;;;;;;;3.20;96.40;;;;;;5084280;28;20287;-87
2020/12/03 09:36:02;;;;;;;;;;;3.30;96.00;;;;;;5096590;28;19916;-89
2020/12/03 09:38:30;;;;;;;;;;;3.30;95.90;;;;;;5096365;28;19938;-87
2020/12/03 09:40:57;;;;;;;;;;;3.30;97.10;;;;;;5096283;28;19914;-86
2020/12/03 09:43:23;;;;;;;;;;;3.40;96.90;;;;;;5096240;28;20056;-87
2020/12/03 09:45:57;;;;;;;;;;;3.40;96.80;;;;;;5096032;28;20358;-87
2020/12/03 09:48:24;;;;;;;;;;;3.50;95.90;;;;;;5096473;28;20046;-87
2020/12/03 09:50:50;;;;;;;;;;;3.50;97.40;;;;;;5096395;28;19912;-87
2020/12/03 09:53:17;;;;;;;;;;;3.50;95.90;;;;;;5092486;28;20390;-87
2020/12/03 09:55:45;;;;;;;;;;;3.60;95.50;;;;;;5093673;28;20480;-87
2020/12/03 09:58:16;;;;;;;;;;;3.60;95.20;;;;;;5092992;28;20032;-88
2020/12/03 10:00:42;;;;;;;;;;;3.50;95.90;;;;;;5092474;28;20335;-87
2020/12/03 10:03:23;;;;;;;;;;;3.50;95.40;;;;;;5092282;28;20330;-87
2020/12/03 10:06:08;;;;;;;;;;;3.50;95.20;;;;;;5092773;28;19912;-88
2020/12/03 10:08:40;;;;;;;;;;;3.60;94.50;;;;;;5093403;28;19913;-87
2020/12/03 10:11:06;;;;;;;;;;;3.60;94.50;;;;;;5092530;28;20002;-88
2020/12/03 10:13:31;;;;;;;;;;;3.70;93.90;;;;;;5092674;28;20053;-87
2020/12/03 10:16:03;;;;;;;;;;;3.70;94.70;;;;;;5092421;28;19916;-87
2020/12/03 10:18:49;;;;;;;;;;;3.70;95.60;;;;;;5092118;28;19928;-87
2020/12/03 10:21:22;;;;;;;;;;;3.70;94.50;;;;;;5092187;28;19920;-87
2020/12/03 10:23:50;;;;;;;;;;;3.70;94.40;;;;;;5092193;28;19916;-87
2020/12/03 10:26:18;;;;;;;;;;;3.70;94.20;;;;;;5092004;28;19947;-87
2020/12/03 10:29:04;;;;;;;;;;;3.70;94.70;;;;;;5094840;28;19964;-88
2020/12/03 10:31:30;;;;;;;;;;;3.70;95.00;;;;;;5095409;28;20014;-86
2020/12/03 10:33:59;;;;;;;;;;;3.70;94.50;;;;;;5114155;28;20391;-87
2020/12/03 10:36:27;;;;;;;;;;;3.80;94.10;;;;;;5089793;28;20124;-88
2020/12/03 10:38:56;;;;;;;;;;;3.80;94.20;;;;;;5094778;28;19946;-88
2020/12/03 10:41:30;;;;;;;;;;;3.90;94.30;;;;;;5096056;28;19961;-88
2020/12/03 10:43:57;;;;;;;;;;;3.90;94.60;;;;;;5092695;28;19922;-88
2020/12/03 10:46:24;;;;;;;;;;;3.90;93.90;;;;;;5092655;28;19912;-88
2020/12/03 10:48:53;;;;;;;;;;;4.00;94.30;;;;;;5093283;28;19911;-87
2020/12/03 10:51:21;;;;;;;;;;;3.90;93.70;;;;;;5092510;28;19922;-88
2020/12/03 10:53:50;;;;;;;;;;;3.90;93.30;;;;;;5093577;28;19920;-88
2020/12/03 10:56:23;;;;;;;;;;;4.00;92.70;;;;;;5090672;28;20390;-88
2020/12/03 10:59:17;;;;;;;;;;;4.00;92.60;;;;;;5090957;28;19944;-87
2020/12/03 11:01:43;;;;;;;;;;;4.00;92.40;;;;;;5091313;28;19912;-88
2020/12/03 11:04:10;;;;;;;;;;;4.10;91.60;;;;;;5094650;28;20100;-88
2020/12/03 11:06:38;;;;;;;;;;;4.10;92.80;;;;;;5074276;28;19959;-87
2020/12/03 11:09:05;;;;;;;;;;;4.10;93.20;;;;;;5074078;28;20283;-88
2020/12/03 11:11:36;;;;;;;;;;;4.10;92.20;;;;;;5073780;28;20381;-87
2020/12/03 11:14:10;;;;;;;;;;;4.10;92.60;;;;;;5073504;28;19916;-88
2020/12/03 11:28:48;;;;;;;;;;;4.10;90.70;;;;;;5054951;28;20323;-88
2020/12/03 11:31:14;;;;;;;;;;;4.10;92.60;;;;;;5053583;28;19916;-88
2020/12/03 11:33:50;;;;;;;;;;;4.10;91.60;;;;;;5053405;28;20019;-89
2020/12/03 11:36:16;;;;;;;;;;;4.10;91.90;;;;;;5053389;28;20011;-88
2020/12/03 11:38:49;;;;;;;;;;;4.00;92.40;;;;;;5071300;28;20007;-88
2020/12/03 11:41:21;;;;;;;;;;;4.00;92.10;;;;;;5071362;28;19954;-88
2020/12/03 11:49:28;;;;;;;;;;;4.00;92.50;;;;;;5071164;28;20030;-88
2020/12/03 11:51:54;;;;;;;;;;;4.00;92.30;;;;;;5070796;28;19916;-88
2020/12/03 11:54:28;;;;;;;;;;;4.00;92.60;;;;;;5053086;28;19916;-89
2020/12/03 11:56:59;;;;;;;;;;;4.00;91.90;;;;;;5071493;28;19916;-88
2020/12/03 11:59:36;;;;;;;;;;;3.90;92.50;;;;;;5053319;28;19912;-88
2020/12/03 12:02:03;;;;;;;;;;;3.90;91.60;;;;;;5053030;28;19920;-88
2020/12/03 12:07:11;;;;;;;;;;;3.90;92.50;;;;;;5071252;28;20011;-87
2020/12/03 12:12:11;;;;;;;;;;;3.90;92.00;;;;;;5070955;28;19916;-88
2020/12/03 12:14:40;;;;;;;;;;;4.00;92.00;;;;;;5052801;28;19920;-89
2020/12/03 12:17:06;;;;;;;;;;;3.90;92.50;;;;;;5053105;28;19917;-88
2020/12/03 12:19:33;;;;;;;;;;;3.90;93.60;;;;;;5053011;28;19909;-88
2020/12/03 12:22:01;;;;;;;;;;;4.00;93.10;;;;;;5053140;28;19915;-88
2020/12/03 12:24:27;;;;;;;;;;;3.90;93.50;;;;;;5052581;28;20004;-88
2020/12/03 12:26:58;;;;;;;;;;;3.90;91.70;;;;;;5053062;28;20013;-88
2020/12/03 12:29:28;;;;;;;;;;;3.90;92.20;;;;;;5043623;28;19966;-87
2020/12/03 12:31:56;;;;;;;;;;;4.00;92.00;;;;;;5032887;28;19913;-88
2020/12/03 12:34:22;;;;;;;;;;;4.00;91.60;;;;;;5029488;28;20386;-88
2020/12/03 12:36:47;;;;;;;;;;;4.00;92.40;;;;;;5033130;28;19917;-88
2020/12/03 12:39:15;;;;;;;;;;;4.00;92.50;;;;;;5032570;28;19917;-88
2020/12/03 12:41:41;;;;;;;;;;;4.00;94.80;;;;;;5032466;28;19965;-88
2020/12/03 12:44:06;;;;;;;;;;;4.00;92.60;;;;;;5033134;28;19912;-88
2020/12/03 12:46:34;;;;;;;;;;;4.00;92.50;;;;;;5032539;28;19913;-87
2020/12/03 12:49:02;;;;;;;;;;;4.00;92.10;;;;;;5032421;28;19913;-86
2020/12/03 12:51:28;;;;;;;;;;;4.00;93.10;;;;;;5032480;28;19916;-87
2020/12/03 12:53:56;;;;;;;;;;;4.00;91.90;;;;;;5032937;28;20062;-86
2020/12/03 12:56:21;;;;;;;;;;;4.00;92.10;;;;;;5032136;28;19965;-87
2020/12/03 12:58:49;;;;;;;;;;;4.00;92.20;;;;;;5032354;28;20003;-88
2020/12/03 13:01:15;;;;;;;;;;;4.00;92.60;;;;;;5032453;28;20173;-88
2020/12/03 13:03:41;;;;;;;;;;;4.00;93.10;;;;;;5033072;28;20356;-88
2020/12/03 13:06:06;;;;;;;;;;;4.00;91.40;;;;;;5032789;28;19913;-87
2020/12/03 13:08:34;;;;;;;;;;;4.00;91.50;;;;;;5035215;28;19912;-88
2020/12/03 13:11:00;;;;;;;;;;;4.00;92.40;;;;;;5036481;28;20020;-87
2020/12/03 13:13:34;;;;;;;;;;;4.00;92.30;;;;;;5035572;28;20133;-88
2020/12/03 13:16:02;;;;;;;;;;;4.00;92.50;;;;;;5036204;28;19913;-87
2020/12/03 13:18:30;;;;;;;;;;;3.90;92.30;;;;;;5035945;28;19917;-87
2020/12/03 13:20:58;;;;;;;;;;;4.00;93.90;;;;;;5035984;28;19966;-87
2020/12/03 13:23:27;;;;;;;;;;;3.90;92.90;;;;;;5036619;28;20433;-87
2020/12/03 13:25:53;;;;;;;;;;;3.90;93.00;;;;;;5036092;28;19909;-89
2020/12/03 13:28:19;;;;;;;;;;;4.00;92.80;;;;;;5036011;28;19924;-88
2020/12/03 13:30:47;;;;;;;;;;;3.90;94.30;;;;;;5055849;28;19916;-88
2020/12/03 13:33:14;;;;;;;;;;;3.90;93.80;;;;;;5055991;28;19927;-86
2020/12/03 13:35:45;;;;;;;;;;;4.00;93.40;;;;;;5037069;28;19923;-87
2020/12/03 13:38:15;;;;;;;;;;;4.00;92.70;;;;;;5036395;28;19970;-87
2020/12/03 13:40:44;;;;;;;;;;;4.00;93.00;;;;;;5035774;28;19913;-88
2020/12/03 13:43:13;;;;;;;;;;;3.90;93.10;;;;;;5035716;28;19971;-88
2020/12/03 13:45:38;;;;;;;;;;;4.00;93.40;;;;;;5036086;28;19912;-88
2020/12/03 13:48:04;;;;;;;;;;;3.90;95.20;;;;;;5036009;28;20011;-87
2020/12/03 13:50:32;;;;;;;;;;;3.90;95.20;;;;;;5036263;28;19913;-88
2020/12/03 13:53:00;;;;;;;;;;;3.90;94.80;;;;;;5035519;28;19913;-88
2020/12/03 13:55:25;;;;;;;;;;;3.90;96.00;;;;;;5036724;28;19916;-87
2020/12/03 13:57:54;;;;;;;;;;;3.90;93.70;;;;;;5035794;28;20008;-88
2020/12/03 14:00:19;;;;;;;;;;;3.90;93.20;;;;;;5035306;28;19913;-87
2020/12/03 14:02:47;;;;;;;;;;;3.90;94.10;;;;;;5035243;28;20018;-88
2020/12/03 14:05:13;;;;;;;;;;;3.90;93.30;;;;;;5035583;28;20363;-87
2020/12/03 14:07:41;;;;;;;;;;;3.90;93.10;;;;;;5035232;28;19947;-88
2020/12/03 14:10:06;;;;;;;;;;;3.90;93.10;;;;;;5035355;28;19912;-87
2020/12/03 14:12:32;;;;;;;;;;;3.90;93.30;;;;;;5035811;28;20014;-88
2020/12/03 14:14:57;;;;;;;;;;;3.90;94.50;;;;;;5035296;28;20417;-88
2020/12/03 14:17:28;;;;;;;;;;;3.90;94.50;;;;;;5035742;28;19965;-88
2020/12/03 14:19:53;;;;;;;;;;;3.80;94.60;;;;;;5034420;28;19917;-86
2020/12/03 14:22:20;;;;;;;;;;;3.80;94.50;;;;;;5035452;28;20050;-88
2020/12/03 14:24:45;;;;;;;;;;;3.90;94.10;;;;;;5035113;28;19913;-87
2020/12/03 14:27:11;;;;;;;;;;;3.80;94.20;;;;;;5034692;28;19935;-87
2020/12/03 14:29:42;;;;;;;;;;;3.80;95.10;;;;;;5063993;28;20290;-89
2020/12/03 14:32:10;;;;;;;;;;;3.80;95.70;;;;;;5055319;28;20378;-87
2020/12/03 14:34:36;;;;;;;;;;;3.80;96.70;;;;;;5054435;28;19924;-87
2020/12/03 14:37:04;;;;;;;;;;;3.80;95.40;;;;;;5054389;28;20442;-87
2020/12/03 14:39:32;;;;;;;;;;;3.80;96.30;;;;;;5054804;28;19912;-88
2020/12/03 14:42:00;;;;;;;;;;;3.70;95.90;;;;;;5054940;28;20267;-87
2020/12/03 14:44:26;;;;;;;;;;;3.70;96.20;;;;;;5054859;28;19985;-89
2020/12/03 14:46:51;;;;;;;;;;;3.80;95.50;;;;;;5055209;28;20344;-88
2020/12/03 14:49:17;;;;;;;;;;;3.70;95.60;;;;;;5054425;28;19955;-86
2020/12/03 14:51:49;;;;;;;;;;;3.70;95.70;;;;;;5054170;28;20275;-87
2020/12/03 14:54:15;;;;;;;;;;;3.70;96.10;;;;;;5072083;28;19916;-87
2020/12/03 14:56:40;;;;;;;;;;;3.70;96.80;;;;;;5054850;28;19916;-87
2020/12/03 14:59:08;;;;;;;;;;;3.60;96.30;;;;;;5054676;28;19986;-86
2020/12/03 15:01:34;;;;;;;;;;;3.60;96.40;;;;;;5054087;28;19912;-87
2020/12/03 15:04:02;;;;;;;;;;;3.60;96.40;;;;;;5053957;28;20428;-88
2020/12/03 15:06:27;;;;;;;;;;;3.60;95.50;;;;;;5072293;28;19912;-88
2020/12/03 15:08:57;;;;;;;;;;;3.60;96.60;;;;;;5048056;28;20412;-87